KSQI/SQI METAR and TAF weather

Enter ICAO airport designator
Station Type Date Time Source
KSQI METAR 2020/12/06 00:56 UTC NOAA

KSQI 060056Z AUTO 07003KT 10SM CLR 00/M02 A3012 RMK AO2 SLP067 T00001017 FZRANO


Station Type Date Time Source
KSQI Decoded METAR 2020/12/06 00:56 UTC NOAA

Sterling Rockfalls, IL, United States (KSQI) 41-45N 089-40W
Dec 05, 2020 - 07:56 PM EST / 2020.12.06 0056 UTC
Wind: from the ENE (070 degrees) at 3 MPH (3 KT):0
Visibility: 10 mile(s):0
Sky conditions: clear
Temperature: 32.0 F (0.0 C)
Dew Point: 28.9 F (-1.7 C)
Relative Humidity: 88%
Pressure (altimeter): 30.12 in. Hg (1019 hPa)
ob: KSQI 060056Z AUTO 07003KT 10SM CLR 00/M02 A3012 RMK AO2 SLP067 T00001017 FZRANO
cycle: 1

Station Type Date Time Source
KSQI TAF UTC NOAA

Error!

Example: see airport list